首页
METAR-TAF:

METAR-TAF

机场 :

约阿尼纳, 希腊

纬度: 39-41-47N, 经度: 20-49-21E, 海拔: 475米

当前天气观测

该预报发布于23分钟前的10:20 UTC
温度 30°C
湿度 38%
气压 1014 hPa
能见度10公里或以上
少量云层高于3500英尺
散云层高于7000英尺

METAR: LGIO 221020Z /////KT 9999 FEW035 SCT070 30/14 Q1014

时间: 13:43 (10:43 UTC)

预报

该预报发布于2小时和43分钟前的08:00 UTC
预报有效从22日的 09点(UTC)到 22日的 18点(UTC)
风速3节,风向多变
能见度10公里或以上
少量云层高于3000英尺

TAF: LGIO 220800Z 2209/2218 VRB03KT 9999 FEW030

超过4000个机场的气象观测和天气预报(METAR&TAF报告)。

可查询的气象台以黄色和红色小点在地图上表示。

将鼠标移到小点上方,可查看气象台名称。

然后点击查看天气观测和预报。

如需切换地图:点击带黑十字的绿色按钮放大地图;点击带横线的绿色按钮缩小地图;或者点击绿色箭头查看邻近地区的地图。


METAR-TAF: